createdAt,value
2019-04-25T03:47:53.154Z,61.30
2019-04-25T03:50:23.179Z,61.50
2019-04-25T03:52:51.704Z,61.90
2019-04-25T03:55:20.127Z,62.30
2019-04-25T03:57:48.553Z,62.30
2019-04-25T04:00:17.124Z,62.10
2019-04-25T04:02:45.544Z,62.20
2019-04-25T04:05:14.990Z,62.60
2019-04-25T04:07:43.578Z,62.90
2019-04-25T04:10:14.167Z,62.50
2019-04-25T04:12:42.219Z,61.00
2019-04-25T04:15:10.728Z,61.40
2019-04-25T04:17:43.798Z,62.10
2019-04-25T04:20:15.167Z,62.70
2019-04-25T04:22:46.040Z,61.30
2019-04-25T04:25:16.120Z,61.00
2019-04-25T04:27:44.625Z,62.30
2019-04-25T04:30:14.462Z,62.80
2019-04-25T04:32:44.124Z,64.20
2019-04-25T04:35:14.439Z,63.50
2019-04-25T04:37:43.217Z,63.90
2019-04-25T04:40:11.853Z,63.80
2019-04-25T04:42:40.326Z,63.90
2019-04-25T04:45:08.845Z,64.30
2019-04-25T04:47:37.355Z,63.80
2019-04-25T04:50:06.608Z,64.10
2019-04-25T04:52:35.036Z,63.60
2019-04-25T04:55:08.374Z,62.40
2019-04-25T04:57:36.209Z,62.80
2019-04-25T05:00:07.563Z,63.60
2019-04-25T05:02:43.681Z,64.40
2019-04-25T05:05:23.530Z,62.70
2019-04-25T05:07:54.424Z,61.90
2019-04-25T05:10:23.689Z,62.70
2019-04-25T05:12:53.319Z,62.10
2019-04-25T05:15:23.031Z,62.20
2019-04-25T05:17:52.000Z,63.30
2019-04-25T05:20:20.437Z,62.90
2019-04-25T05:22:48.936Z,63.10
2019-04-25T05:25:17.787Z,62.80
2019-04-25T05:27:59.438Z,62.50
2019-04-25T05:30:19.437Z,62.50
2019-04-25T05:32:47.939Z,62.10
2019-04-25T05:35:16.491Z,62.10
2019-04-25T05:37:45.208Z,61.70
2019-04-25T05:40:16.137Z,61.10
2019-04-25T05:42:46.656Z,60.50
2019-04-25T05:45:18.233Z,60.30
2019-04-25T05:47:46.017Z,59.20
2019-04-25T05:50:15.675Z,59.10
2019-04-25T05:52:45.975Z,59.00
2019-04-25T05:55:17.529Z,58.50
2019-04-25T05:57:49.519Z,58.70
2019-04-25T06:00:17.490Z,58.20
2019-04-25T06:02:46.204Z,57.60
2019-04-25T06:05:14.918Z,57.50
2019-04-25T06:07:43.467Z,57.30
2019-04-25T06:10:31.938Z,57.10
2019-04-25T06:13:18.148Z,56.50
2019-04-25T06:15:51.027Z,56.40
2019-04-25T06:18:21.246Z,56.40
2019-04-25T06:20:49.800Z,55.80
2019-04-25T06:23:36.333Z,55.90
2019-04-25T06:26:19.105Z,55.70
2019-04-25T06:28:35.219Z,55.50
2019-04-25T06:31:04.149Z,55.30
2019-04-25T06:33:34.027Z,55.20
2019-04-25T06:36:04.167Z,55.20
2019-04-25T06:38:33.480Z,55.00
2019-04-25T06:41:03.573Z,54.60
2019-04-25T06:43:37.169Z,54.40
2019-04-25T06:46:25.743Z,53.90
2019-04-25T06:49:03.413Z,53.60
2019-04-25T06:51:49.686Z,53.70
2019-04-25T06:54:18.967Z,53.40
2019-04-25T06:56:47.517Z,53.30
2019-04-25T06:59:17.178Z,52.80
2019-04-25T07:01:45.676Z,52.80
2019-04-25T07:04:15.384Z,52.60
2019-04-25T07:06:45.475Z,52.30
2019-04-25T07:09:14.636Z,52.10
2019-04-25T07:11:44.044Z,51.80
2019-04-25T07:14:14.087Z,51.60
2019-04-25T07:16:44.264Z,51.00
2019-04-25T07:19:14.682Z,50.80
2019-04-25T07:21:44.361Z,50.70
2019-04-25T07:24:17.273Z,50.60
2019-04-25T07:26:46.064Z,50.50
2019-04-25T07:29:33.715Z,50.20
2019-04-25T07:32:18.904Z,49.60
2019-04-25T07:34:47.536Z,49.20
2019-04-25T07:37:16.061Z,47.80
2019-04-25T07:39:44.542Z,47.00
2019-04-25T07:42:14.044Z,47.50
2019-04-25T07:44:50.622Z,46.40
2019-04-25T07:47:13.684Z,46.10
2019-04-25T07:49:43.386Z,46.70
2019-04-25T07:52:13.561Z,46.00
2019-04-25T07:54:43.850Z,45.50
2019-04-25T07:57:13.563Z,44.60
2019-04-25T07:59:43.644Z,44.10
2019-04-25T08:02:13.392Z,43.50
2019-04-25T08:04:41.863Z,43.70
2019-04-25T08:07:10.287Z,44.10
2019-04-25T08:09:38.727Z,43.20
2019-04-25T08:12:10.160Z,42.60
2019-04-25T08:14:46.190Z,41.20
2019-04-25T08:17:18.874Z,40.70
2019-04-25T08:19:47.599Z,41.00
2019-04-25T08:22:16.112Z,40.60
2019-04-25T08:24:44.961Z,40.00
2019-04-25T08:27:13.467Z,39.20
2019-04-25T08:29:42.055Z,38.70
2019-04-25T08:32:10.473Z,38.30
2019-04-25T08:34:39.007Z,37.20
2019-04-25T08:37:17.611Z,36.40
2019-04-25T08:39:39.802Z,35.70
2019-04-25T08:42:08.339Z,34.60
2019-04-25T08:44:36.966Z,33.20
2019-04-25T08:47:05.522Z,31.80
2019-04-25T08:49:38.408Z,30.30
2019-04-25T08:52:06.856Z,29.60
2019-04-25T08:54:41.082Z,29.60
2019-04-25T08:57:08.843Z,28.80
2019-04-25T08:59:44.290Z,28.30
2019-04-25T09:02:13.662Z,27.80
2019-04-25T09:04:44.615Z,27.80
2019-04-25T09:07:13.443Z,27.40
2019-04-25T09:09:43.609Z,26.10
2019-04-25T09:12:13.948Z,25.80
2019-04-25T09:14:44.745Z,25.90
2019-04-25T09:17:14.177Z,25.20
2019-04-25T09:19:44.141Z,24.40
2019-04-25T09:22:13.287Z,23.60
2019-04-25T09:24:42.103Z,23.50
2019-04-25T09:27:10.559Z,23.00
2019-04-25T09:29:39.060Z,23.20
2019-04-25T09:32:07.555Z,23.70
2019-04-25T09:34:35.981Z,24.60
2019-04-25T09:37:04.479Z,23.70
2019-04-25T09:39:35.617Z,23.60
2019-04-25T09:42:04.612Z,22.80
2019-04-25T09:44:38.204Z,22.30
2019-04-25T09:47:07.335Z,21.30
2019-04-25T09:49:37.985Z,21.80
2019-04-25T09:52:14.391Z,22.50
2019-04-25T09:55:03.505Z,21.60
2019-04-25T09:57:43.452Z,21.00
2019-04-25T10:00:17.535Z,20.00
2019-04-25T10:02:45.979Z,19.90
2019-04-25T10:05:15.269Z,20.30
2019-04-25T10:07:46.290Z,20.80
2019-04-25T10:10:14.114Z,21.70
2019-04-25T10:12:44.123Z,21.70
2019-04-25T10:15:18.661Z,21.30
2019-04-25T10:17:47.096Z,20.40
2019-04-25T10:20:17.876Z,20.60
2019-04-25T10:22:46.636Z,20.00
2019-04-25T10:25:16.008Z,19.40
2019-04-25T10:27:48.869Z,18.90
2019-04-25T10:30:19.952Z,19.50
2019-04-25T10:32:46.274Z,19.60
2019-04-25T10:35:14.994Z,19.60
2019-04-25T10:37:45.212Z,20.50
2019-04-25T10:40:14.840Z,20.80
2019-04-25T10:42:46.491Z,21.40
2019-04-25T10:45:22.877Z,22.00
2019-04-25T10:47:45.265Z,21.70
2019-04-25T10:50:15.732Z,21.40
2019-04-25T10:52:45.831Z,21.00
2019-04-25T10:55:14.633Z,19.30
2019-04-25T10:57:43.659Z,19.60
2019-04-25T11:00:28.848Z,20.40
2019-04-25T11:02:59.928Z,20.90
2019-04-25T11:05:28.428Z,20.30
2019-04-25T11:07:56.857Z,19.00
2019-04-25T11:10:25.988Z,18.70
2019-04-25T11:12:55.199Z,18.50
2019-04-25T11:15:23.810Z,19.60
2019-04-25T11:17:54.141Z,19.80
2019-04-25T11:20:28.425Z,20.00
2019-04-25T11:22:56.871Z,20.50
2019-04-25T11:25:25.545Z,20.10
2019-04-25T11:27:55.192Z,20.70
2019-04-25T11:30:25.689Z,21.90
2019-04-25T11:32:54.744Z,21.90
2019-04-25T11:35:24.165Z,21.00
2019-04-25T11:37:54.912Z,20.90
2019-04-25T11:40:37.029Z,20.40
2019-04-25T11:43:05.543Z,20.90
2019-04-25T11:45:37.104Z,20.70
2019-04-25T11:48:05.683Z,20.90
2019-04-25T11:50:36.910Z,20.90
2019-04-25T11:53:04.836Z,21.90
2019-04-25T11:55:33.602Z,21.70
2019-04-25T11:58:03.701Z,21.30
2019-04-25T12:00:34.585Z,21.40
2019-04-25T12:03:03.702Z,20.70
2019-04-25T12:05:32.383Z,21.00
2019-04-25T12:08:00.995Z,21.80
2019-04-25T12:10:30.048Z,20.90
2019-04-25T12:12:58.484Z,20.20
2019-04-25T12:15:27.137Z,19.90
2019-04-25T12:17:55.918Z,19.90
2019-04-25T12:20:24.608Z,20.20
2019-04-25T12:23:04.168Z,20.90
2019-04-25T12:25:23.712Z,20.10
2019-04-25T12:27:53.839Z,20.20
2019-04-25T12:30:36.670Z,20.00
2019-04-25T12:32:53.873Z,20.60
2019-04-25T12:35:24.216Z,20.60
2019-04-25T12:37:54.059Z,20.40
2019-04-25T12:40:24.223Z,20.10
2019-04-25T12:42:52.776Z,20.70
2019-04-25T12:45:28.412Z,21.70
2019-04-25T12:47:59.342Z,22.00
2019-04-25T12:50:27.887Z,22.80
2019-04-25T12:52:56.311Z,22.50
2019-04-25T12:55:24.750Z,22.10
2019-04-25T12:57:54.822Z,22.10
2019-04-25T13:00:27.455Z,22.80
2019-04-25T13:02:56.593Z,22.40
2019-04-25T13:05:25.220Z,21.90
2019-04-25T13:07:58.404Z,21.30
2019-04-25T13:10:25.538Z,21.70
2019-04-25T13:12:55.422Z,21.30
2019-04-25T13:15:26.578Z,21.00
2019-04-25T13:17:54.508Z,20.50
2019-04-25T13:20:22.915Z,20.60
2019-04-25T13:22:51.342Z,21.20
2019-04-25T13:25:21.669Z,20.50
2019-04-25T13:27:54.715Z,20.30
2019-04-25T13:30:36.843Z,20.90
2019-04-25T13:33:06.910Z,20.50
2019-04-25T13:35:37.034Z,20.00
2019-04-25T13:38:05.479Z,20.60
2019-04-25T13:40:34.002Z,20.00
2019-04-25T13:43:03.432Z,19.60
2019-04-25T13:45:32.981Z,19.90
2019-04-25T13:48:03.394Z,19.90
2019-04-25T13:50:31.989Z,20.10
2019-04-25T13:53:00.479Z,20.30
2019-04-25T13:55:28.912Z,19.40
2019-04-25T13:57:57.384Z,19.80
2019-04-25T14:00:26.160Z,20.10
2019-04-25T14:02:54.976Z,20.80
2019-04-25T14:05:24.876Z,20.50
2019-04-25T14:07:54.196Z,20.70
2019-04-25T14:10:23.416Z,21.30
2019-04-25T14:12:53.602Z,21.20
2019-04-25T14:15:25.162Z,21.50
2019-04-25T14:17:55.587Z,21.50
2019-04-25T14:20:26.513Z,21.60
2019-04-25T14:22:55.233Z,21.90
2019-04-25T14:25:26.922Z,21.90
2019-04-25T14:27:54.524Z,22.30
2019-04-25T14:30:25.261Z,22.50
2019-04-25T14:32:54.818Z,23.20
2019-04-25T14:35:24.153Z,22.50
2019-04-25T14:37:53.920Z,22.20
2019-04-25T14:40:23.004Z,22.10
2019-04-25T14:42:52.560Z,22.50
2019-04-25T14:45:21.567Z,22.90
2019-04-25T14:47:51.043Z,23.10
2019-04-25T14:50:19.556Z,23.60
2019-04-25T14:52:47.996Z,23.20
2019-04-25T14:55:34.215Z,23.50
2019-04-25T14:58:04.283Z,23.30
2019-04-25T15:00:43.072Z,23.20
2019-04-25T15:03:11.491Z,23.30
2019-04-25T15:05:42.158Z,23.80
2019-04-25T15:08:10.200Z,24.10
2019-04-25T15:10:38.659Z,23.20
2019-04-25T15:13:08.669Z,23.50
2019-04-25T15:15:37.164Z,23.60
2019-04-25T15:18:05.668Z,24.10
2019-04-25T15:20:34.425Z,24.00
2019-04-25T15:23:03.928Z,23.80
2019-04-25T15:25:32.356Z,24.20
2019-04-25T15:28:00.888Z,24.20
2019-04-25T15:30:30.957Z,24.30
2019-04-25T15:32:59.490Z,24.40
2019-04-25T15:35:30.039Z,24.20
2019-04-25T15:38:00.212Z,23.60
2019-04-25T15:40:32.964Z,23.60
2019-04-25T15:43:03.092Z,23.90
2019-04-25T15:45:38.667Z,23.60
2019-04-25T15:48:07.795Z,23.90
2019-04-25T15:50:36.224Z,24.20
2019-04-25T15:53:04.658Z,24.00
2019-04-25T15:55:33.110Z,24.40
2019-04-25T15:58:01.625Z,24.00
2019-04-25T16:00:34.991Z,24.30
2019-04-25T16:03:04.076Z,24.00
2019-04-25T16:05:33.439Z,24.40
2019-04-25T16:08:01.866Z,24.30
2019-04-25T16:10:30.459Z,23.90
2019-04-25T16:12:59.552Z,23.40
2019-04-25T16:15:28.985Z,23.40
2019-04-25T16:17:57.573Z,23.90
2019-04-25T16:20:27.116Z,24.10
2019-04-25T16:22:56.310Z,23.90
2019-04-25T16:25:24.836Z,24.20
2019-04-25T16:27:53.337Z,23.80
2019-04-25T16:30:23.562Z,23.60
2019-04-25T16:32:52.066Z,24.00
2019-04-25T16:35:20.591Z,24.00
2019-04-25T16:37:49.102Z,24.50
2019-04-25T16:40:17.621Z,24.40
2019-04-25T16:42:46.083Z,24.20
2019-04-25T16:45:15.123Z,24.00
2019-04-25T16:47:43.609Z,23.80
2019-04-25T16:50:12.657Z,24.20
2019-04-25T16:52:41.149Z,23.50
2019-04-25T16:55:10.289Z,23.80
2019-04-25T16:57:39.616Z,24.10
2019-04-25T17:00:13.089Z,24.20
2019-04-25T17:02:42.374Z,24.20
2019-04-25T17:05:11.072Z,23.90
2019-04-25T17:07:39.572Z,23.40
2019-04-25T17:10:08.367Z,24.20
2019-04-25T17:12:36.991Z,24.20
2019-04-25T17:15:11.465Z,24.30
2019-04-25T17:17:57.648Z,23.90
2019-04-25T17:20:27.744Z,24.00
2019-04-25T17:22:56.415Z,24.20
2019-04-25T17:25:24.913Z,24.10
2019-04-25T17:27:53.340Z,24.10
2019-04-25T17:30:22.237Z,24.20
2019-04-25T17:32:53.876Z,23.90
2019-04-25T17:35:41.980Z,24.20
2019-04-25T17:38:12.141Z,23.70
2019-04-25T17:40:40.562Z,23.90
2019-04-25T17:43:11.235Z,23.90
2019-04-25T17:45:39.188Z,24.00
2019-04-25T17:48:07.651Z,23.80
2019-04-25T17:50:36.074Z,23.70
2019-04-25T17:53:04.508Z,24.10
2019-04-25T17:55:33.353Z,23.90
2019-04-25T17:58:02.109Z,24.20
2019-04-25T18:00:35.364Z,23.90
2019-04-25T18:03:04.321Z,24.10
2019-04-25T18:05:32.769Z,24.30
2019-04-25T18:08:01.258Z,25.40
2019-04-25T18:10:29.689Z,24.90
2019-04-25T18:12:58.189Z,24.50
2019-04-25T18:15:28.279Z,24.80
2019-04-25T18:17:56.705Z,25.80
2019-04-25T18:20:29.879Z,25.40
2019-04-25T18:22:59.949Z,25.50
2019-04-25T18:25:46.321Z,25.30
2019-04-25T18:28:19.457Z,25.40
2019-04-25T18:30:48.387Z,26.60
2019-04-25T18:33:18.495Z,28.60
2019-04-25T18:35:48.825Z,29.00
2019-04-25T18:38:21.630Z,28.60
2019-04-25T18:41:09.628Z,28.00
2019-04-25T18:43:42.690Z,28.60
2019-04-25T18:46:21.897Z,28.10
2019-04-25T18:48:50.452Z,27.00
2019-04-25T18:51:18.957Z,28.80
2019-04-25T18:54:05.407Z,29.90
2019-04-25T18:56:47.614Z,29.50
2019-04-25T18:59:34.070Z,28.00
2019-04-25T19:02:13.164Z,28.70
2019-04-25T19:04:46.976Z,28.50
2019-04-25T19:07:22.403Z,29.00
2019-04-25T19:09:47.116Z,28.90
2019-04-25T19:12:15.684Z,29.50
2019-04-25T19:14:44.993Z,30.70
2019-04-25T19:17:14.215Z,30.70
2019-04-25T19:19:43.628Z,31.90
2019-04-25T19:22:12.167Z,32.60
2019-04-25T19:24:44.732Z,34.00
2019-04-25T19:27:22.987Z,34.40
2019-04-25T19:29:41.737Z,34.30
2019-04-25T19:32:10.298Z,34.90
2019-04-25T19:34:39.059Z,35.30
2019-04-25T19:37:07.523Z,35.70
2019-04-25T19:39:37.623Z,38.70
2019-04-25T19:42:22.380Z,41.00
2019-04-25T19:44:51.308Z,42.80
2019-04-25T19:47:20.797Z,43.90
2019-04-25T19:49:49.830Z,44.40
2019-04-25T19:52:20.927Z,45.40
2019-04-25T19:54:55.144Z,46.10
2019-04-25T19:57:25.513Z,46.70
2019-04-25T19:59:54.803Z,47.00
2019-04-25T20:02:40.769Z,47.00
2019-04-25T20:05:14.471Z,46.90
2019-04-25T20:10:49.007Z,45.20
2019-04-25T20:13:18.582Z,43.30
2019-04-25T20:15:53.860Z,43.80
2019-04-25T20:18:22.449Z,45.50
2019-04-25T20:20:54.072Z,47.10
2019-04-25T20:23:24.068Z,48.70
2019-04-25T20:25:53.119Z,49.00
2019-04-25T20:28:30.054Z,49.60
2019-04-25T20:31:02.878Z,49.90
2019-04-25T20:33:33.806Z,49.70
2019-04-25T20:36:04.365Z,49.50
2019-04-25T20:38:34.790Z,49.40
2019-04-25T20:41:04.462Z,49.30
2019-04-25T20:43:36.499Z,49.30
2019-04-25T20:46:07.562Z,49.60
2019-04-25T20:48:37.018Z,49.60
2019-04-25T20:51:07.392Z,49.70
2019-04-25T20:53:37.077Z,49.80
2019-04-25T20:56:06.739Z,50.20
2019-04-25T20:58:36.728Z,50.20
2019-04-25T21:01:07.501Z,50.30
2019-04-25T21:03:36.952Z,50.60
2019-04-25T21:06:07.196Z,50.70
2019-04-25T21:08:35.629Z,50.80
2019-04-25T21:11:05.033Z,51.20
2019-04-25T21:13:53.165Z,51.30
2019-04-25T21:16:29.042Z,51.60
2019-04-25T21:19:05.709Z,51.90
2019-04-25T21:21:35.898Z,52.30
2019-04-25T21:24:04.904Z,52.70
2019-04-25T21:26:33.457Z,53.40
2019-04-25T21:29:02.743Z,53.70
2019-04-25T21:31:31.343Z,53.60
2019-04-25T21:33:59.886Z,53.90
2019-04-25T21:36:28.948Z,54.20
2019-04-25T21:38:57.536Z,54.60
2019-04-25T21:41:40.019Z,55.30
2019-04-25T21:44:08.809Z,56.10
2019-04-25T21:46:37.336Z,56.20
2019-04-25T21:49:06.060Z,56.70
2019-04-25T21:51:34.563Z,57.10
2019-04-25T21:54:03.659Z,57.30
2019-04-25T21:56:32.476Z,57.40
2019-04-25T21:59:01.917Z,57.20
2019-04-25T22:01:32.170Z,57.20
2019-04-25T22:04:00.760Z,57.40
2019-04-25T22:06:29.521Z,57.60
2019-04-25T22:08:58.707Z,57.60
2019-04-25T22:11:27.168Z,57.70
2019-04-25T22:13:56.517Z,57.50
2019-04-25T22:16:26.220Z,57.50
2019-04-25T22:18:55.510Z,57.50
2019-04-25T22:21:37.190Z,57.30
2019-04-25T22:24:06.086Z,57.40
2019-04-25T22:26:25.180Z,57.70
2019-04-25T22:28:53.924Z,57.80
2019-04-25T22:31:26.447Z,57.50
2019-04-25T22:33:59.754Z,57.40
2019-04-25T22:36:28.887Z,57.30
2019-04-25T22:39:09.610Z,57.20
2019-04-25T22:41:40.872Z,57.20
2019-04-25T22:44:12.200Z,57.50
2019-04-25T22:46:41.163Z,57.50
2019-04-25T22:49:09.679Z,57.60
2019-04-25T22:51:38.192Z,57.50
2019-04-25T22:54:07.378Z,57.50
2019-04-25T22:56:36.017Z,57.40
2019-04-25T22:59:05.555Z,57.50
